Time;durP1;ratioP1;P1;durP2;ratioP2;P2;SDS_P1;SDS_P2;PMS_P1;PMS_P2;Temp;Humidity;BMP_temperature;BMP_pressure;BME280_temperature;BME280_humidity;BME280_pressure;Samples;Min_cycle;Max_cycle;Signal;HPM_P1;HPM_P2
2021/12/05 00:22:30;;;;;;;4.70;1.43;;;7.30;99.90;;;;;;5114761;28;20656;-79
2021/12/05 00:25:00;;;;;;;3.57;1.17;;;7.20;99.90;;;;;;5097930;28;20306;-77
2021/12/05 00:27:33;;;;;;;3.13;1.27;;;7.30;99.90;;;;;;5115461;28;20321;-77
2021/12/05 00:30:37;;;;;;;3.80;1.40;;;7.40;99.90;;;;;;5098619;28;20167;-77
2021/12/05 00:49:29;;;;;;;4.00;1.00;;;7.40;99.90;;;;;;5115859;28;20625;-77
2021/12/05 01:10:58;;;;;;;2.53;1.10;;;7.50;99.90;;;;;;5115658;28;20724;-78
2021/12/05 01:15:58;;;;;;;2.60;0.80;;;7.30;99.90;;;;;;5114990;28;20228;-80
2021/12/05 01:18:25;;;;;;;2.00;0.63;;;7.30;99.90;;;;;;5114681;28;20190;-79
2021/12/05 01:20:56;;;;;;;1.43;0.57;;;7.40;99.90;;;;;;5081073;28;20220;-79
2021/12/05 01:26:13;;;;;;;0.87;0.47;;;7.30;99.90;;;;;;5115552;28;20555;-80
2021/12/05 01:29:07;;;;;;;2.23;0.57;;;7.20;99.90;;;;;;5114384;28;20195;-78
2021/12/05 01:34:24;;;;;;;3.50;0.67;;;7.30;99.90;;;;;;5114179;28;20175;-81
2021/12/05 01:43:07;;;;;;;2.70;1.00;;;7.30;99.90;;;;;;5113984;28;20178;-77
2021/12/05 01:53:58;;;;;;;1.07;0.70;;;7.40;99.90;;;;;;5079036;28;20172;-79
2021/12/05 02:10:48;;;;;;;1.90;0.70;;;7.40;99.90;;;;;;5114391;28;20171;-77
2021/12/05 02:40:24;;;;;;;5.03;1.00;;;7.00;99.90;;;;;;5092339;28;20725;-79
2021/12/05 02:43:03;;;;;;;4.73;0.97;;;7.10;99.90;;;;;;5092930;28;20248;-80
2021/12/05 02:45:32;;;;;;;2.50;0.80;;;7.00;99.90;;;;;;5096222;28;20175;-78
2021/12/05 02:47:58;;;;;;;0.83;0.47;;;7.00;99.90;;;;;;5094969;28;20203;-76
2021/12/05 02:50:29;;;;;;;1.90;0.67;;;6.90;99.90;;;;;;5113723;28;20664;-80
2021/12/05 02:53:01;;;;;;;2.50;0.70;;;6.90;99.90;;;;;;5113974;28;20254;-79
2021/12/05 02:55:39;;;;;;;0.77;0.50;;;7.00;99.90;;;;;;5112259;28;20254;-78
2021/12/05 02:58:25;;;;;;;3.17;1.10;;;7.10;99.90;;;;;;5111903;28;20182;-79
2021/12/05 03:01:09;;;;;;;1.50;0.77;;;7.10;99.90;;;;;;5098127;28;20235;-78
2021/12/05 03:03:36;;;;;;;1.97;0.90;;;7.10;99.90;;;;;;5111773;28;20202;-79
2021/12/05 03:06:16;;;;;;;2.80;1.13;;;7.20;99.90;;;;;;5111225;28;20199;-77
2021/12/05 03:08:44;;;;;;;1.37;0.80;;;7.20;99.90;;;;;;5111020;28;20206;-79
2021/12/05 03:11:10;;;;;;;3.00;0.77;;;7.20;99.90;;;;;;5094645;28;20175;-77
2021/12/05 03:13:40;;;;;;;3.80;0.90;;;7.10;99.90;;;;;;5093662;28;20296;-78
2021/12/05 03:16:07;;;;;;;0.97;0.63;;;7.10;99.90;;;;;;5110655;28;20186;-79
2021/12/05 03:18:33;;;;;;;0.83;0.60;;;7.10;99.90;;;;;;5112463;28;20179;-77
2021/12/05 03:21:01;;;;;;;1.20;0.57;;;6.90;99.90;;;;;;5093073;28;20179;-78
2021/12/05 03:23:27;;;;;;;2.53;1.00;;;7.00;99.90;;;;;;5076974;28;20647;-76
2021/12/05 03:25:53;;;;;;;0.90;0.80;;;7.00;99.90;;;;;;5093442;28;20217;-79
2021/12/05 03:28:19;;;;;;;2.53;1.10;;;6.80;99.90;;;;;;5086421;28;20306;-77
2021/12/05 03:30:45;;;;;;;3.23;0.90;;;6.90;99.90;;;;;;5112092;28;20307;-79
2021/12/05 03:33:11;;;;;;;1.67;0.70;;;6.90;99.90;;;;;;5094658;28;20697;-79
2021/12/05 03:35:37;;;;;;;3.07;0.60;;;7.00;99.90;;;;;;5113431;28;20159;-79
2021/12/05 03:38:04;;;;;;;1.83;0.73;;;7.00;99.90;;;;;;5110735;28;20167;-79
2021/12/05 03:40:33;;;;;;;3.73;1.00;;;7.10;99.90;;;;;;5110814;28;20281;-78
2021/12/05 03:43:04;;;;;;;2.10;0.90;;;7.10;99.90;;;;;;5077051;28;20182;-78
2021/12/05 03:45:34;;;;;;;2.13;0.60;;;7.00;99.90;;;;;;5110754;28;20680;-78
2021/12/05 03:48:00;;;;;;;4.53;0.80;;;6.90;99.90;;;;;;5110823;28;20223;-78
2021/12/05 03:50:26;;;;;;;2.93;0.80;;;7.00;99.90;;;;;;5110275;28;20723;-78
2021/12/05 03:52:55;;;;;;;3.90;0.80;;;6.80;99.90;;;;;;5110375;28;20179;-78
2021/12/05 03:55:21;;;;;;;2.63;0.87;;;6.90;99.90;;;;;;5110604;28;20175;-78
2021/12/05 03:57:47;;;;;;;1.10;0.80;;;6.80;99.90;;;;;;5110819;28;20167;-77
2021/12/05 04:00:29;;;;;;;1.00;0.87;;;6.80;99.90;;;;;;5110504;28;20183;-79
2021/12/05 04:02:58;;;;;;;3.83;1.33;;;6.80;99.90;;;;;;5110428;28;20246;-77
2021/12/05 04:05:26;;;;;;;3.87;0.70;;;6.80;99.90;;;;;;5110438;28;20463;-78
2021/12/05 04:07:52;;;;;;;1.37;0.80;;;6.90;99.90;;;;;;5110252;28;20206;-77
2021/12/05 04:10:19;;;;;;;1.40;0.70;;;7.00;99.90;;;;;;5110664;28;20319;-79
2021/12/05 04:12:45;;;;;;;1.40;0.57;;;7.00;99.90;;;;;;5110471;28;20186;-79
2021/12/05 04:15:12;;;;;;;0.80;0.60;;;7.00;99.90;;;;;;5110537;28;20175;-77
2021/12/05 04:17:41;;;;;;;4.17;1.13;;;6.90;99.90;;;;;;5093415;28;20222;-78
2021/12/05 04:20:10;;;;;;;1.90;0.80;;;6.80;99.90;;;;;;5112852;28;20255;-77
2021/12/05 04:22:36;;;;;;;1.00;0.80;;;6.70;99.90;;;;;;5110132;28;20555;-79
2021/12/05 04:25:08;;;;;;;3.50;1.00;;;6.80;99.90;;;;;;5093146;28;20734;-79
2021/12/05 04:27:34;;;;;;;3.30;0.93;;;6.60;99.90;;;;;;5076786;28;20207;-78
2021/12/05 04:29:59;;;;;;;1.27;0.70;;;6.60;99.90;;;;;;5109960;28;20587;-76
2021/12/05 04:32:25;;;;;;;3.13;0.97;;;6.70;99.90;;;;;;5109826;28;20259;-78
2021/12/05 04:34:51;;;;;;;1.63;0.90;;;6.70;99.90;;;;;;5110188;28;20178;-79
2021/12/05 04:37:17;;;;;;;4.00;0.93;;;7.00;99.90;;;;;;5093234;28;20610;-77
2021/12/05 04:39:43;;;;;;;1.80;0.70;;;6.80;99.90;;;;;;5109625;28;20187;-78
2021/12/05 04:42:09;;;;;;;2.43;0.90;;;6.90;99.90;;;;;;5111263;28;20175;-77
2021/12/05 04:44:36;;;;;;;3.70;0.87;;;6.80;99.90;;;;;;5109734;28;20642;-77
2021/12/05 04:47:05;;;;;;;2.53;0.80;;;7.00;99.90;;;;;;5109885;28;20195;-77
2021/12/05 04:49:31;;;;;;;3.50;0.80;;;6.70;99.90;;;;;;5109807;28;20191;-78
2021/12/05 04:51:57;;;;;;;0.60;0.50;;;6.90;99.90;;;;;;5077060;28;20831;-79
2021/12/05 04:54:23;;;;;;;2.93;0.70;;;6.90;99.90;;;;;;5119195;28;20269;-78
2021/12/05 04:56:50;;;;;;;3.03;0.90;;;7.00;99.90;;;;;;5110808;28;20244;-77
2021/12/05 04:59:18;;;;;;;0.47;0.40;;;7.00;99.90;;;;;;5076535;28;20179;-77
2021/12/05 05:01:48;;;;;;;2.50;0.80;;;7.00;99.90;;;;;;5111032;28;20269;-79
2021/12/05 05:04:25;;;;;;;0.80;0.60;;;7.00;99.90;;;;;;5117133;28;20621;-79
2021/12/05 05:06:53;;;;;;;2.40;0.90;;;6.90;99.90;;;;;;5134640;27;20182;-79
2021/12/05 05:09:19;;;;;;;1.30;0.50;;;6.80;99.90;;;;;;5135394;27;20700;-78
2021/12/05 05:11:46;;;;;;;2.53;0.60;;;6.80;99.90;;;;;;5115933;27;20171;-79
2021/12/05 05:14:13;;;;;;;1.17;0.70;;;6.50;99.90;;;;;;5096404;28;20179;-77
2021/12/05 05:16:40;;;;;;;1.40;0.50;;;6.50;99.90;;;;;;5113406;28;20182;-80
2021/12/05 05:19:07;;;;;;;1.90;0.60;;;6.30;99.90;;;;;;5096508;28;20564;-79
2021/12/05 05:43:11;;;;;;;0.70;0.60;;;6.50;99.90;;;;;;5134758;27;20174;-78
2021/12/05 05:50:36;;;;;;;1.30;0.60;;;6.50;99.90;;;;;;5134797;27;20171;-78
2021/12/05 05:53:02;;;;;;;1.60;0.60;;;6.50;99.90;;;;;;5117429;27;20174;-79
2021/12/05 05:55:28;;;;;;;4.23;0.73;;;6.50;99.90;;;;;;5112670;28;20202;-79
2021/12/05 06:00:37;;;;;;;1.40;0.63;;;6.30;99.90;;;;;;5112651;28;20179;-79
2021/12/05 06:03:22;;;;;;;0.97;0.50;;;6.30;99.90;;;;;;5097603;28;20190;-79
2021/12/05 06:05:55;;;;;;;0.83;0.50;;;6.20;99.90;;;;;;5112617;28;20683;-79
2021/12/05 06:08:24;;;;;;;2.20;0.83;;;6.30;99.90;;;;;;5113852;27;20241;-77
2021/12/05 06:10:51;;;;;;;1.63;0.80;;;6.30;99.90;;;;;;5134946;27;20621;-79
2021/12/05 06:13:19;;;;;;;1.20;0.60;;;6.40;99.90;;;;;;5134474;27;20222;-79
2021/12/05 06:15:51;;;;;;;1.53;0.80;;;6.30;99.90;;;;;;5116003;27;20166;-79
2021/12/05 06:18:17;;;;;;;1.33;0.60;;;6.30;99.90;;;;;;5092371;28;20191;-78
2021/12/05 06:20:44;;;;;;;1.93;0.70;;;6.30;99.90;;;;;;5091955;28;20684;-78
2021/12/05 06:23:11;;;;;;;2.37;0.60;;;6.40;99.90;;;;;;5101461;27;20253;-79
2021/12/05 06:25:39;;;;;;;0.50;0.40;;;6.30;99.90;;;;;;5132956;27;20798;-78
2021/12/05 06:28:12;;;;;;;1.10;0.70;;;6.30;99.90;;;;;;5135352;27;20198;-78
2021/12/05 06:46:29;;;;;;;3.23;0.80;;;6.00;99.90;;;;;;5094683;28;20205;-79
2021/12/05 06:48:56;;;;;;;2.73;0.70;;;6.10;99.90;;;;;;5112809;28;20203;-78
2021/12/05 06:51:25;;;;;;;1.17;0.57;;;6.10;99.90;;;;;;5094651;28;20220;-78
2021/12/05 06:53:51;;;;;;;2.30;0.60;;;6.20;99.90;;;;;;5111863;28;20175;-78
2021/12/05 06:56:17;;;;;;;1.03;0.63;;;6.30;99.90;;;;;;5112856;27;21005;-78
2021/12/05 06:58:44;;;;;;;2.20;0.70;;;6.40;99.90;;;;;;5111841;28;20215;-78
2021/12/05 07:01:11;;;;;;;2.43;0.80;;;6.30;99.90;;;;;;5111362;28;20183;-76
2021/12/05 07:03:42;;;;;;;1.33;0.70;;;6.40;99.90;;;;;;5094281;28;20320;-77
2021/12/05 07:06:11;;;;;;;1.40;0.90;;;6.30;99.90;;;;;;5112189;28;20171;-77
2021/12/05 07:08:40;;;;;;;1.00;0.50;;;6.40;99.90;;;;;;5111352;28;20206;-77
2021/12/05 07:21:33;;;;;;;0.60;0.50;;;6.10;99.90;;;;;;5096030;28;20181;-77
2021/12/05 07:24:45;;;;;;;3.43;0.90;;;6.10;99.90;;;;;;5112180;28;20178;-77
2021/12/05 07:42:52;;;;;;;3.73;0.90;;;6.10;99.90;;;;;;5110951;28;20171;-77
2021/12/05 07:45:23;;;;;;;0.60;0.57;;;6.20;99.90;;;;;;5112020;28;20538;-78
2021/12/05 07:47:53;;;;;;;3.13;0.70;;;6.00;99.90;;;;;;5110494;28;20202;-78
2021/12/05 07:50:26;;;;;;;3.10;0.70;;;6.20;99.90;;;;;;5112226;28;20175;-77
2021/12/05 07:52:54;;;;;;;1.63;0.40;;;6.30;99.90;;;;;;5110468;28;20630;-77
2021/12/05 07:55:23;;;;;;;0.87;0.70;;;6.40;99.90;;;;;;5093869;28;20179;-78
2021/12/05 08:00:33;;;;;;;1.87;0.67;;;6.40;99.90;;;;;;5111578;28;20229;-78
2021/12/05 08:14:32;;;;;;;1.53;0.53;;;6.30;99.90;;;;;;5094524;28;20214;-78
2021/12/05 08:17:00;;;;;;;1.33;0.70;;;6.30;99.90;;;;;;5083481;28;20175;-78
2021/12/05 08:19:25;;;;;;;1.10;0.77;;;6.10;99.90;;;;;;5095873;28;20258;-78
2021/12/05 08:21:55;;;;;;;2.30;0.70;;;6.00;99.90;;;;;;5088515;28;20275;-76
2021/12/05 08:24:30;;;;;;;1.77;0.80;;;6.10;99.90;;;;;;5091755;28;20184;-78
2021/12/05 08:26:55;;;;;;;0.93;0.63;;;6.20;99.90;;;;;;5096047;28;20191;-77
2021/12/05 08:29:41;;;;;;;1.77;0.67;;;6.00;99.90;;;;;;5098080;28;20252;-77
2021/12/05 08:45:57;;;;;;;2.00;0.80;;;6.40;99.90;;;;;;5093779;28;20186;-78
2021/12/05 09:29:48;;;;;;;1.10;0.70;;;6.70;99.90;;;;;;5095442;28;20557;-77
2021/12/05 09:50:56;;;;;;;2.13;0.70;;;7.20;99.90;;;;;;5093562;28;20651;-77
2021/12/05 10:38:07;;;;;;;1.43;0.70;;;8.20;99.90;;;;;;5104050;28;20233;-79
2021/12/05 10:40:46;;;;;;;1.13;0.50;;;8.50;99.90;;;;;;5092771;28;20226;-78
2021/12/05 10:43:16;;;;;;;0.67;0.30;;;8.30;99.90;;;;;;5100333;28;20198;-83
2021/12/05 10:45:49;;;;;;;2.37;0.83;;;8.20;99.90;;;;;;5091076;28;20192;-76
2021/12/05 10:48:20;;;;;;;1.27;0.70;;;8.40;99.90;;;;;;5103394;28;20260;-76
2021/12/05 10:50:52;;;;;;;1.33;0.53;;;8.40;99.90;;;;;;5090433;28;20275;-78
2021/12/05 10:53:35;;;;;;;0.87;0.60;;;8.20;99.90;;;;;;5103591;28;20190;-77
2021/12/05 10:56:37;;;;;;;1.73;0.57;;;8.30;99.90;;;;;;5089135;28;20189;-79
2021/12/05 10:59:07;;;;;;;1.20;0.60;;;8.60;99.90;;;;;;5094380;28;20195;-78
2021/12/05 11:01:35;;;;;;;1.90;0.60;;;8.70;99.90;;;;;;5098600;28;20184;-79
2021/12/05 11:04:04;;;;;;;1.00;0.60;;;8.70;99.90;;;;;;5093807;28;20187;-78
2021/12/05 11:06:34;;;;;;;0.53;0.50;;;8.50;99.90;;;;;;5104518;28;20422;-78
2021/12/05 11:09:15;;;;;;;1.90;0.77;;;8.70;99.90;;;;;;5102306;28;20198;-77
2021/12/05 11:11:47;;;;;;;1.97;0.60;;;8.80;99.90;;;;;;5093778;28;20275;-79
2021/12/05 11:14:22;;;;;;;1.40;0.50;;;8.90;99.90;;;;;;5092451;28;20179;-78
2021/12/05 11:17:24;;;;;;;1.07;0.50;;;8.70;99.90;;;;;;5098525;28;20521;-77
2021/12/05 11:19:59;;;;;;;1.33;0.70;;;8.80;99.90;;;;;;5070410;28;20283;-80
2021/12/05 11:22:28;;;;;;;2.60;0.80;;;8.70;99.90;;;;;;5077804;28;20206;-78
2021/12/05 11:25:01;;;;;;;1.47;0.60;;;8.40;99.90;;;;;;5070345;28;20195;-79
2021/12/05 11:27:29;;;;;;;1.67;0.50;;;8.50;99.90;;;;;;5083436;28;20199;-77
2021/12/05 11:30:00;;;;;;;1.43;0.70;;;8.70;99.90;;;;;;5094499;28;20205;-78
2021/12/05 11:32:59;;;;;;;0.40;0.40;;;8.80;99.90;;;;;;5075674;28;20248;-77
2021/12/05 11:35:45;;;;;;;3.77;0.70;;;8.80;99.90;;;;;;5090493;28;20192;-80
2021/12/05 11:38:22;;;;;;;2.67;0.70;;;9.00;99.90;;;;;;5106101;28;20179;-77
2021/12/05 11:41:02;;;;;;;0.80;0.70;;;9.00;99.90;;;;;;5112229;28;20187;-77
2021/12/05 11:43:36;;;;;;;1.87;0.73;;;8.90;99.90;;;;;;5095941;28;20552;-83
2021/12/05 11:46:15;;;;;;;0.80;0.50;;;8.90;99.90;;;;;;5111009;28;20159;-76
2021/12/05 11:48:53;;;;;;;0.80;0.50;;;8.70;99.90;;;;;;5111782;28;20552;-77
2021/12/05 11:51:57;;;;;;;0.77;0.67;;;8.30;99.90;;;;;;5107885;28;20171;-78
2021/12/05 11:54:28;;;;;;;1.40;0.70;;;8.40;99.90;;;;;;5049890;28;20193;-79
2021/12/05 11:57:01;;;;;;;1.07;0.77;;;8.70;99.90;;;;;;5092849;28;20203;-78
2021/12/05 11:59:37;;;;;;;0.87;0.53;;;8.80;99.90;;;;;;5083583;28;20546;-77
2021/12/05 12:02:20;;;;;;;2.23;0.57;;;8.90;99.90;;;;;;5092504;28;20280;-77
2021/12/05 12:05:06;;;;;;;0.50;0.50;;;9.10;99.90;;;;;;5092472;28;20168;-76
2021/12/05 12:07:41;;;;;;;2.73;0.67;;;9.10;99.90;;;;;;5097219;28;20179;-79
2021/12/05 12:10:28;;;;;;;2.73;0.70;;;9.10;99.90;;;;;;5094214;28;20268;-78
2021/12/05 12:13:18;;;;;;;1.57;0.83;;;9.00;99.90;;;;;;5083353;28;20199;-78
2021/12/05 12:15:47;;;;;;;0.93;0.80;;;8.80;99.90;;;;;;5104633;28;20273;-78
2021/12/05 12:18:26;;;;;;;1.50;0.70;;;8.90;99.90;;;;;;5100481;28;20737;-80
2021/12/05 12:20:52;;;;;;;3.43;0.87;;;8.90;99.90;;;;;;5099251;28;20175;-79
2021/12/05 12:23:20;;;;;;;4.13;0.80;;;9.10;99.90;;;;;;5104219;28;20195;-79
2021/12/05 12:25:53;;;;;;;3.27;0.70;;;9.10;99.90;;;;;;5066739;28;20302;-77
2021/12/05 12:28:21;;;;;;;2.77;0.73;;;8.90;99.90;;;;;;5105740;28;20195;-75
2021/12/05 12:30:55;;;;;;;0.80;0.70;;;8.90;99.90;;;;;;5111567;28;20185;-77
2021/12/05 12:33:39;;;;;;;1.00;0.80;;;9.10;99.90;;;;;;5110528;28;20648;-77
2021/12/05 12:36:05;;;;;;;1.67;0.80;;;8.90;99.90;;;;;;5090299;28;20205;-79
2021/12/05 12:38:31;;;;;;;1.17;0.80;;;8.90;99.90;;;;;;5108761;28;20288;-79
2021/12/05 12:41:19;;;;;;;0.93;0.70;;;8.90;99.90;;;;;;5109083;28;20187;-78
2021/12/05 12:43:56;;;;;;;1.23;0.70;;;8.90;99.90;;;;;;5110261;28;20679;-79
2021/12/05 12:46:34;;;;;;;1.37;0.63;;;8.80;99.90;;;;;;5111221;28;20517;-79
2021/12/05 12:49:20;;;;;;;0.77;0.67;;;8.70;99.90;;;;;;5109836;28;20273;-77
2021/12/05 12:51:51;;;;;;;1.13;0.57;;;8.80;99.90;;;;;;5111144;28;20195;-79
2021/12/05 12:54:23;;;;;;;0.73;0.50;;;9.00;99.90;;;;;;5111673;28;20215;-79
2021/12/05 12:57:18;;;;;;;0.60;0.60;;;9.10;99.90;;;;;;5110943;28;20159;-78
2021/12/05 12:59:44;;;;;;;1.07;0.70;;;9.10;99.90;;;;;;5111645;28;20742;-78
2021/12/05 13:02:28;;;;;;;0.73;0.70;;;8.90;99.90;;;;;;5109797;28;20175;-77
2021/12/05 13:05:17;;;;;;;0.53;0.50;;;8.70;99.90;;;;;;5111237;28;20181;-77
2021/12/05 13:10:48;;;;;;;1.93;0.50;;;8.70;99.90;;;;;;5056431;28;20184;-78
2021/12/05 13:13:25;;;;;;;0.73;0.50;;;8.90;99.90;;;;;;5068106;28;20195;-77
2021/12/05 13:15:57;;;;;;;0.57;0.50;;;8.80;99.90;;;;;;5081011;28;20691;-78
2021/12/05 13:18:40;;;;;;;2.00;0.50;;;8.70;99.90;;;;;;5110196;28;20221;-84
2021/12/05 13:21:13;;;;;;;0.33;0.33;;;8.90;99.90;;;;;;5115568;28;20183;-78
2021/12/05 13:23:42;;;;;;;0.53;0.40;;;8.70;99.90;;;;;;5111259;28;20630;-82
2021/12/05 13:26:23;;;;;;;0.63;0.63;;;9.10;99.90;;;;;;5111021;28;20199;-77
2021/12/05 13:29:11;;;;;;;1.40;0.40;;;9.30;99.90;;;;;;5097013;28;20199;-78
2021/12/05 13:31:44;;;;;;;1.87;1.30;;;9.30;99.90;;;;;;5114694;28;20163;-79
2021/12/05 13:34:40;;;;;;;1.33;1.20;;;9.60;99.90;;;;;;5080408;28;20654;-79
2021/12/05 13:37:06;;;;;;;0.83;0.63;;;9.50;99.90;;;;;;5113008;28;20216;-78
2021/12/05 13:40:03;;;;;;;1.33;0.80;;;9.60;99.90;;;;;;5113953;28;20186;-79
2021/12/05 13:43:05;;;;;;;0.63;0.47;;;9.30;99.90;;;;;;5114660;28;20202;-78
2021/12/05 13:45:42;;;;;;;0.73;0.57;;;9.10;99.90;;;;;;5113584;28;20190;-79
2021/12/05 13:48:29;;;;;;;0.60;0.50;;;8.90;99.90;;;;;;5114546;28;20289;-77
2021/12/05 13:51:04;;;;;;;1.10;0.70;;;8.90;99.90;;;;;;5114690;28;20224;-81
2021/12/05 13:53:37;;;;;;;1.37;0.80;;;9.20;99.90;;;;;;5096282;28;20261;-79
2021/12/05 13:56:07;;;;;;;1.20;0.70;;;9.10;99.90;;;;;;5113175;28;20179;-79
2021/12/05 13:58:47;;;;;;;0.97;0.83;;;9.10;99.90;;;;;;5096230;28;20163;-83
2021/12/05 14:01:43;;;;;;;2.13;1.63;;;9.10;99.90;;;;;;5114443;28;20200;-79
2021/12/05 14:04:23;;;;;;;1.63;1.03;;;8.80;99.90;;;;;;5097642;28;20197;-79
2021/12/05 14:07:04;;;;;;;0.77;0.60;;;8.80;99.90;;;;;;5112277;28;20167;-79
2021/12/05 14:09:42;;;;;;;0.80;0.50;;;8.70;99.90;;;;;;5113850;28;20195;-79
2021/12/05 14:12:24;;;;;;;1.20;0.60;;;8.60;99.90;;;;;;5112222;28;20175;-78
2021/12/05 14:14:53;;;;;;;0.80;0.60;;;8.50;99.90;;;;;;5114118;28;20557;-77
2021/12/05 14:17:27;;;;;;;0.93;0.60;;;8.40;99.90;;;;;;5096210;28;20182;-76
2021/12/05 14:19:58;;;;;;;1.67;1.10;;;8.60;99.90;;;;;;5098025;28;20184;-79
2021/12/05 14:22:29;;;;;;;1.97;1.50;;;8.70;99.90;;;;;;5103141;28;20171;-77
2021/12/05 14:24:58;;;;;;;1.73;1.00;;;8.80;99.90;;;;;;5078615;28;20777;-78
2021/12/05 14:27:32;;;;;;;3.70;1.23;;;8.90;99.90;;;;;;5094310;28;20178;-78
2021/12/05 14:29:59;;;;;;;1.10;0.80;;;8.90;99.90;;;;;;5103692;28;20183;-80
2021/12/05 14:32:29;;;;;;;1.20;1.00;;;8.80;99.90;;;;;;5097302;28;20179;-79
2021/12/05 14:35:06;;;;;;;1.20;0.60;;;9.00;99.90;;;;;;5078785;28;20184;-79
2021/12/05 14:37:34;;;;;;;1.70;0.60;;;9.00;99.90;;;;;;5101904;28;20641;-78
2021/12/05 14:40:06;;;;;;;0.80;0.57;;;8.90;99.90;;;;;;5094421;28;20188;-81
2021/12/05 14:42:34;;;;;;;1.47;0.70;;;8.70;99.90;;;;;;5066336;28;20183;-79
2021/12/05 14:45:21;;;;;;;1.70;0.70;;;8.60;99.90;;;;;;5097827;28;20176;-79
2021/12/05 14:47:48;;;;;;;1.70;0.70;;;8.70;99.90;;;;;;5098593;28;20199;-79
2021/12/05 14:50:19;;;;;;;1.67;0.80;;;8.60;99.90;;;;;;5096518;28;20178;-78
2021/12/05 14:52:49;;;;;;;3.30;0.80;;;8.50;99.90;;;;;;5096677;28;20168;-78
2021/12/05 14:55:18;;;;;;;0.97;0.70;;;8.30;99.90;;;;;;5097099;28;21449;-79
2021/12/05 14:57:47;;;;;;;2.10;0.70;;;8.20;99.90;;;;;;5097177;28;20560;-79
2021/12/05 15:00:19;;;;;;;1.20;0.70;;;8.00;99.90;;;;;;5079282;28;20233;-79
2021/12/05 15:02:45;;;;;;;2.30;0.70;;;8.20;99.90;;;;;;5080246;28;20715;-79
2021/12/05 15:05:18;;;;;;;2.73;1.00;;;8.20;99.90;;;;;;5090653;28;20198;-79
2021/12/05 15:07:45;;;;;;;0.97;0.80;;;8.10;99.90;;;;;;5096809;27;20193;-79
2021/12/05 15:10:19;;;;;;;1.07;0.60;;;8.00;99.90;;;;;;5099379;27;20183;-78
2021/12/05 15:12:49;;;;;;;2.17;0.90;;;8.10;99.90;;;;;;5090491;27;20190;-80
2021/12/05 15:15:14;;;;;;;1.10;0.87;;;8.00;99.90;;;;;;5069326;28;20172;-79
2021/12/05 15:17:42;;;;;;;1.20;0.93;;;8.00;99.90;;;;;;5074158;28;20179;-75
2021/12/05 15:20:12;;;;;;;0.80;0.70;;;7.90;99.90;;;;;;5103838;28;20861;-76
2021/12/05 15:22:46;;;;;;;0.97;0.70;;;7.90;99.90;;;;;;5089830;28;20176;-75
2021/12/05 15:25:16;;;;;;;1.20;0.80;;;7.90;99.90;;;;;;5086078;28;20261;-79
2021/12/05 15:27:43;;;;;;;1.37;0.90;;;8.00;99.90;;;;;;5100164;28;20179;-73
2021/12/05 15:30:16;;;;;;;1.03;0.87;;;8.00;99.90;;;;;;5103783;27;20220;-77
2021/12/05 15:32:46;;;;;;;0.97;0.60;;;7.90;99.90;;;;;;5103927;28;20581;-79
2021/12/05 15:35:16;;;;;;;1.27;0.77;;;7.90;99.90;;;;;;5099168;28;20168;-76
2021/12/05 15:38:01;;;;;;;1.20;0.77;;;7.90;99.90;;;;;;5070252;28;20178;-80
2021/12/05 15:40:28;;;;;;;1.37;1.00;;;7.90;99.90;;;;;;5073292;28;20184;-79
2021/12/05 15:43:04;;;;;;;0.90;0.80;;;7.80;99.90;;;;;;5089294;28;20263;-79
2021/12/05 15:45:32;;;;;;;1.13;0.87;;;7.80;99.90;;;;;;5089395;28;20187;-77
2021/12/05 15:47:58;;;;;;;2.50;0.90;;;7.80;99.90;;;;;;5092745;28;20190;-80
2021/12/05 15:50:27;;;;;;;2.13;0.90;;;7.80;99.90;;;;;;5095081;28;20171;-77
2021/12/05 15:53:05;;;;;;;1.43;0.90;;;7.70;99.90;;;;;;5083753;28;20175;-75
2021/12/05 15:55:46;;;;;;;3.67;1.50;;;7.60;99.90;;;;;;5108455;28;20179;-77
2021/12/05 15:58:42;;;;;;;1.73;1.00;;;7.60;99.90;;;;;;5100994;28;20678;-77
2021/12/05 16:01:19;;;;;;;2.23;1.20;;;7.60;99.90;;;;;;5089519;28;20176;-77
2021/12/05 16:03:47;;;;;;;2.13;1.40;;;7.50;99.90;;;;;;5106558;28;20224;-80
2021/12/05 16:06:16;;;;;;;3.17;1.90;;;7.60;99.90;;;;;;5100797;28;20184;-77
2021/12/05 16:08:44;;;;;;;3.00;1.50;;;7.60;99.90;;;;;;5095344;28;20195;-77
2021/12/05 16:11:16;;;;;;;2.97;1.63;;;7.60;99.90;;;;;;5099178;28;20223;-77
2021/12/05 16:13:44;;;;;;;1.73;1.43;;;7.60;99.90;;;;;;5095057;28;20179;-77
2021/12/05 16:16:20;;;;;;;2.13;1.47;;;7.70;99.90;;;;;;5095545;28;20167;-75
2021/12/05 16:18:51;;;;;;;2.63;1.57;;;7.70;99.90;;;;;;5097515;28;20669;-77
2021/12/05 16:21:27;;;;;;;4.53;1.90;;;7.60;99.90;;;;;;5077909;28;20670;-78
2021/12/05 16:23:54;;;;;;;2.70;1.57;;;7.60;99.90;;;;;;5091221;28;20167;-77
2021/12/05 16:26:27;;;;;;;4.03;2.00;;;7.50;99.90;;;;;;5093474;28;20654;-76
2021/12/05 16:29:02;;;;;;;1.93;1.17;;;7.50;99.90;;;;;;5090467;28;20191;-76
2021/12/05 16:31:33;;;;;;;3.37;1.13;;;7.60;99.90;;;;;;5098706;28;20262;-76
2021/12/05 16:34:07;;;;;;;2.27;1.37;;;7.70;99.90;;;;;;5089565;28;20187;-75
2021/12/05 16:36:41;;;;;;;3.87;1.63;;;7.60;99.90;;;;;;5107779;28;20255;-75
2021/12/05 16:39:14;;;;;;;2.27;1.60;;;7.60;99.90;;;;;;5111106;28;20190;-76
2021/12/05 16:41:55;;;;;;;4.57;1.50;;;7.60;99.90;;;;;;5093216;28;20175;-77
2021/12/05 16:44:27;;;;;;;1.93;1.40;;;7.60;99.90;;;;;;5109797;28;20186;-77
2021/12/05 16:46:56;;;;;;;1.70;1.10;;;7.50;99.90;;;;;;5093021;28;20175;-75
2021/12/05 16:49:28;;;;;;;2.00;1.40;;;7.50;99.90;;;;;;5093033;28;20217;-79
2021/12/05 16:51:57;;;;;;;1.73;1.20;;;7.50;99.90;;;;;;5109610;28;20170;-79
2021/12/05 16:54:33;;;;;;;2.00;1.50;;;7.50;99.90;;;;;;5110293;28;20164;-78
2021/12/05 16:57:08;;;;;;;1.40;1.20;;;7.50;99.90;;;;;;5092773;28;20185;-76
2021/12/05 16:59:40;;;;;;;5.73;1.53;;;7.40;99.90;;;;;;5109784;28;20167;-77
2021/12/05 17:02:09;;;;;;;4.23;2.10;;;7.40;99.90;;;;;;5111701;28;20190;-77
2021/12/05 17:05:02;;;;;;;3.33;1.40;;;7.30;99.90;;;;;;5102339;28;20175;-78
2021/12/05 17:07:43;;;;;;;2.93;1.60;;;7.30;99.90;;;;;;5115258;27;20266;-78
2021/12/05 17:10:32;;;;;;;3.73;1.50;;;7.40;99.90;;;;;;5109436;28;20539;-78
2021/12/05 17:13:18;;;;;;;2.30;1.40;;;7.20;99.90;;;;;;5111498;28;20294;-79
2021/12/05 17:16:01;;;;;;;2.30;1.80;;;7.30;99.90;;;;;;5091059;28;20676;-77
2021/12/05 17:18:34;;;;;;;4.03;1.97;;;7.30;99.90;;;;;;5094375;28;20157;-77
2021/12/05 17:21:06;;;;;;;3.77;2.20;;;7.20;99.90;;;;;;5109557;28;20183;-76
2021/12/05 17:23:57;;;;;;;2.47;1.80;;;7.20;99.90;;;;;;5076650;28;20176;-77
2021/12/05 17:26:34;;;;;;;4.10;2.03;;;7.20;99.90;;;;;;5094099;28;20596;-78
2021/12/05 17:29:19;;;;;;;4.03;2.03;;;7.30;99.90;;;;;;5077398;28;20198;-78
2021/12/05 17:32:12;;;;;;;3.37;1.83;;;7.30;99.90;;;;;;5112892;28;20240;-77
2021/12/05 17:34:49;;;;;;;3.93;1.80;;;7.30;99.90;;;;;;5096032;28;20175;-78
2021/12/05 17:37:28;;;;;;;4.37;1.67;;;7.40;99.90;;;;;;5112891;28;20163;-75
2021/12/05 17:39:54;;;;;;;2.67;1.90;;;7.30;99.90;;;;;;5095119;28;20214;-78
2021/12/05 17:42:23;;;;;;;3.03;1.93;;;7.30;99.90;;;;;;5112807;28;20211;-75
2021/12/05 17:44:55;;;;;;;4.63;2.07;;;7.30;99.90;;;;;;5109490;28;20187;-76
2021/12/05 17:47:22;;;;;;;3.83;2.00;;;7.30;99.90;;;;;;5113152;28;20664;-78
2021/12/05 17:49:52;;;;;;;3.63;2.23;;;7.30;99.90;;;;;;5114138;28;20191;-78
2021/12/05 17:52:21;;;;;;;2.90;1.80;;;7.30;99.90;;;;;;5113026;28;20182;-76
2021/12/05 17:54:54;;;;;;;3.20;2.10;;;7.30;99.90;;;;;;5112594;28;20526;-79
2021/12/05 17:57:32;;;;;;;5.17;2.90;;;7.10;99.90;;;;;;5079629;28;20179;-78
2021/12/05 18:02:46;;;;;;;5.30;2.57;;;6.80;99.90;;;;;;5113538;28;20249;-76
2021/12/05 18:05:20;;;;;;;5.13;2.00;;;6.90;99.90;;;;;;5096200;28;20669;-79
2021/12/05 18:07:48;;;;;;;4.50;2.07;;;7.10;99.90;;;;;;5114012;28;20253;-76
2021/12/05 18:10:17;;;;;;;2.43;1.97;;;7.10;99.90;;;;;;5095789;28;20177;-77
2021/12/05 18:12:45;;;;;;;7.20;2.67;;;7.00;99.90;;;;;;5097282;28;20176;-76
2021/12/05 18:15:21;;;;;;;5.73;2.70;;;7.10;99.90;;;;;;5091151;28;20233;-76
2021/12/05 18:17:47;;;;;;;10.17;4.50;;;7.10;99.90;;;;;;5092240;28;20650;-76
2021/12/05 18:20:18;;;;;;;5.00;2.73;;;6.70;99.90;;;;;;5095954;28;20209;-78
2021/12/05 18:22:45;;;;;;;5.30;2.73;;;6.90;99.90;;;;;;5100467;28;20249;-79
2021/12/05 18:25:12;;;;;;;3.83;2.30;;;6.90;99.90;;;;;;5100007;28;20269;-75
2021/12/05 18:27:40;;;;;;;4.67;2.87;;;7.00;99.90;;;;;;5097041;28;20663;-79
2021/12/05 18:30:08;;;;;;;3.70;2.47;;;6.90;99.90;;;;;;5106153;28;20171;-79
2021/12/05 18:32:34;;;;;;;5.63;3.17;;;6.90;99.90;;;;;;5098253;28;20535;-77
2021/12/05 18:35:02;;;;;;;3.93;2.40;;;6.80;99.90;;;;;;5103766;28;20201;-74
2021/12/05 18:37:28;;;;;;;3.27;2.17;;;7.00;99.90;;;;;;5100928;28;20198;-77
2021/12/05 18:39:54;;;;;;;2.73;1.70;;;7.00;99.90;;;;;;5078090;28;20220;-78
2021/12/05 18:42:23;;;;;;;5.47;2.33;;;6.90;99.90;;;;;;5112722;28;20329;-76
2021/12/05 18:44:57;;;;;;;4.57;2.90;;;6.90;99.90;;;;;;5094707;28;20183;-78
2021/12/05 18:47:27;;;;;;;3.60;2.40;;;6.90;99.90;;;;;;5095592;28;20174;-78
2021/12/05 18:49:54;;;;;;;3.60;2.40;;;7.00;99.90;;;;;;5109787;28;20284;-77
2021/12/05 18:52:23;;;;;;;3.90;2.60;;;6.90;99.90;;;;;;5107084;28;20697;-75
2021/12/05 18:54:49;;;;;;;5.27;2.60;;;6.90;99.90;;;;;;5112651;28;20172;-78
2021/12/05 18:57:20;;;;;;;3.60;2.87;;;6.90;99.90;;;;;;5112551;28;20239;-76